Time;durP1;ratioP1;P1;durP2;ratioP2;P2;SDS_P1;SDS_P2;PMS_P1;PMS_P2;Temp;Humidity;BMP_temperature;BMP_pressure;BME280_temperature;BME280_humidity;BME280_pressure;Samples;Min_cycle;Max_cycle;Signal;HPM_P1;HPM_P2
2022/07/01 00:00:20;;;;;;;0.30;0.00;;;27.40;41.80;;;;;;5079071;28;20045;-45
2022/07/01 00:02:47;;;;;;;0.17;0.17;;;27.40;41.80;;;;;;5078237;28;20182;-51
2022/07/01 00:05:14;;;;;;;0.10;0.00;;;27.40;41.90;;;;;;5072657;28;20072;-46
2022/07/01 00:07:47;;;;;;;0.30;0.10;;;27.40;41.90;;;;;;5071709;28;20043;-48
2022/07/01 00:10:14;;;;;;;0.22;0.22;;;27.40;41.90;;;;;;5071763;28;20076;-45
2022/07/01 00:12:42;;;;;;;0.10;0.00;;;27.40;41.90;;;;;;5087710;28;20047;-49
2022/07/01 00:15:10;;;;;;;0.10;0.00;;;27.40;41.90;;;;;;5073782;28;20049;-45
2022/07/01 00:17:37;;;;;;;0.00;0.00;;;27.30;41.80;;;;;;5075661;28;20043;-46
2022/07/01 00:20:05;;;;;;;0.00;0.00;;;27.40;41.90;;;;;;5072917;28;20079;-47
2022/07/01 00:22:33;;;;;;;0.38;0.15;;;27.30;41.80;;;;;;5073272;28;20032;-47
2022/07/01 00:25:00;;;;;;;0.10;0.00;;;27.30;41.90;;;;;;5058305;28;20564;-45
2022/07/01 00:27:27;;;;;;;0.03;0.00;;;27.30;41.90;;;;;;5076935;28;20047;-44
2022/07/01 00:29:55;;;;;;;0.20;0.00;;;27.30;41.90;;;;;;5077077;28;20052;-45
2022/07/01 00:32:22;;;;;;;0.00;0.00;;;27.30;41.90;;;;;;5072331;28;20879;-50
2022/07/01 00:34:50;;;;;;;0.00;0.00;;;27.30;41.90;;;;;;5069409;28;20040;-47
2022/07/01 00:37:17;;;;;;;0.00;0.00;;;27.30;41.90;;;;;;5075204;28;20785;-47
2022/07/01 00:39:44;;;;;;;0.10;0.00;;;27.30;41.90;;;;;;5081688;28;20128;-47
2022/07/01 00:42:11;;;;;;;0.25;0.00;;;27.30;41.90;;;;;;5068641;28;20380;-46
2022/07/01 00:44:38;;;;;;;0.05;0.00;;;27.30;41.90;;;;;;5078930;28;20587;-44
2022/07/01 00:47:12;;;;;;;0.00;0.00;;;27.30;41.90;;;;;;5073817;28;20039;-47
2022/07/01 00:49:41;;;;;;;0.10;0.00;;;27.30;41.90;;;;;;5072872;28;20059;-48
2022/07/01 00:52:10;;;;;;;0.25;0.00;;;27.30;41.90;;;;;;5068483;28;20049;-48
2022/07/01 00:54:38;;;;;;;0.00;0.00;;;27.30;42.00;;;;;;5077461;28;20047;-45
2022/07/01 00:57:08;;;;;;;1.23;0.20;;;27.20;41.90;;;;;;5078169;28;20041;-43
2022/07/01 00:59:35;;;;;;;0.10;0.00;;;27.30;42.00;;;;;;5071747;28;20044;-50
2022/07/01 01:02:03;;;;;;;0.10;0.00;;;27.30;42.00;;;;;;5072883;28;20075;-45
2022/07/01 01:04:32;;;;;;;0.28;0.00;;;27.30;42.00;;;;;;5070494;28;20052;-49
2022/07/01 01:07:01;;;;;;;0.00;0.00;;;27.30;42.00;;;;;;5076633;28;20036;-48
2022/07/01 01:09:29;;;;;;;0.00;0.00;;;27.30;42.00;;;;;;5072850;28;20125;-46
2022/07/01 01:11:57;;;;;;;0.10;0.00;;;27.20;41.90;;;;;;5075790;28;20048;-47
2022/07/01 01:14:25;;;;;;;0.10;0.00;;;27.20;41.90;;;;;;5065894;28;20044;-47
2022/07/01 01:16:52;;;;;;;0.00;0.00;;;27.20;41.90;;;;;;5071485;28;20416;-45
2022/07/01 01:19:19;;;;;;;0.00;0.00;;;27.20;42.50;;;;;;5067101;28;20033;-49
2022/07/01 01:21:47;;;;;;;0.00;0.00;;;27.20;41.90;;;;;;5076051;28;20044;-49
2022/07/01 01:24:14;;;;;;;0.47;0.00;;;27.20;41.90;;;;;;5071703;28;20085;-49
2022/07/01 01:26:41;;;;;;;0.10;0.00;;;27.20;42.00;;;;;;5076274;28;20033;-44
2022/07/01 01:29:08;;;;;;;0.00;0.00;;;27.20;42.00;;;;;;5074017;28;20059;-47
2022/07/01 01:31:35;;;;;;;0.10;0.00;;;27.20;41.90;;;;;;5071964;28;20088;-49
2022/07/01 01:34:03;;;;;;;0.10;0.00;;;27.20;41.90;;;;;;5053383;28;20420;-48
2022/07/01 01:36:30;;;;;;;0.00;0.00;;;27.20;42.00;;;;;;5075793;28;20073;-49
2022/07/01 01:39:01;;;;;;;0.55;0.00;;;27.20;42.00;;;;;;5075080;28;20048;-49
2022/07/01 01:41:28;;;;;;;0.20;0.00;;;27.10;41.90;;;;;;5075793;28;20071;-52
2022/07/01 01:43:55;;;;;;;0.00;0.00;;;27.20;42.00;;;;;;5081674;28;20044;-48
2022/07/01 01:46:22;;;;;;;0.00;0.00;;;27.20;42.00;;;;;;5069787;28;20044;-50
2022/07/01 01:48:49;;;;;;;0.13;0.13;;;27.10;41.90;;;;;;5076063;28;20071;-48
2022/07/01 01:51:18;;;;;;;0.10;0.00;;;27.10;42.00;;;;;;5072244;28;20056;-48
2022/07/01 01:53:45;;;;;;;0.00;0.00;;;27.10;42.00;;;;;;5074351;28;20133;-46
2022/07/01 01:56:14;;;;;;;0.82;0.00;;;27.10;42.00;;;;;;5073628;28;20048;-48
2022/07/01 01:58:42;;;;;;;0.00;0.00;;;27.10;42.00;;;;;;5072503;28;20160;-46
2022/07/01 02:01:10;;;;;;;0.00;0.00;;;27.10;42.00;;;;;;5067796;28;20600;-51
2022/07/01 02:03:37;;;;;;;0.00;0.00;;;27.10;42.00;;;;;;5075674;28;20041;-50
2022/07/01 02:06:04;;;;;;;0.03;0.00;;;27.10;42.60;;;;;;5076691;28;20051;-47
2022/07/01 02:08:31;;;;;;;0.38;0.38;;;27.10;42.00;;;;;;5071470;28;20495;-50
2022/07/01 02:10:58;;;;;;;0.00;0.00;;;27.10;42.00;;;;;;5071048;28;20070;-52
2022/07/01 02:13:27;;;;;;;0.10;0.00;;;27.10;42.00;;;;;;5070490;28;20067;-49
2022/07/01 02:15:54;;;;;;;0.57;0.00;;;27.10;42.00;;;;;;5076609;28;20517;-47
2022/07/01 02:18:21;;;;;;;0.20;0.00;;;27.10;42.00;;;;;;5060010;28;20429;-47
2022/07/01 02:20:48;;;;;;;0.35;0.00;;;27.00;41.90;;;;;;5074534;28;20086;-48
2022/07/01 02:23:15;;;;;;;0.00;0.00;;;27.00;41.90;;;;;;5073438;28;20343;-48
2022/07/01 02:25:43;;;;;;;0.00;0.00;;;27.10;42.00;;;;;;5073818;28;20032;-47
2022/07/01 02:28:10;;;;;;;0.00;0.00;;;27.00;42.00;;;;;;5067261;28;20040;-49
2022/07/01 02:30:39;;;;;;;0.40;0.38;;;27.00;42.00;;;;;;5076510;28;20048;-47
2022/07/01 02:33:06;;;;;;;0.00;0.00;;;27.00;42.00;;;;;;5070443;28;20055;-48
2022/07/01 02:35:34;;;;;;;0.32;0.00;;;27.10;42.10;;;;;;5072853;28;20033;-45
2022/07/01 02:38:02;;;;;;;0.17;0.17;;;27.00;42.60;;;;;;5070288;28;20048;-47
2022/07/01 02:40:29;;;;;;;0.00;0.00;;;27.00;42.00;;;;;;5070389;28;20048;-52
2022/07/01 02:42:56;;;;;;;0.25;0.00;;;27.00;42.00;;;;;;5084821;28;20036;-47
2022/07/01 02:45:25;;;;;;;0.00;0.00;;;27.00;42.00;;;;;;5085157;28;20040;-47
2022/07/01 02:47:53;;;;;;;0.30;0.30;;;27.00;42.00;;;;;;5075913;28;20040;-48
2022/07/01 02:50:20;;;;;;;0.00;0.00;;;27.00;42.70;;;;;;5070174;28;20133;-46
2022/07/01 02:52:47;;;;;;;0.00;0.00;;;27.00;42.00;;;;;;5070852;28;20041;-48
2022/07/01 02:55:15;;;;;;;0.05;0.05;;;27.00;42.00;;;;;;5070466;28;20062;-46
2022/07/01 02:57:43;;;;;;;0.00;0.00;;;27.00;42.10;;;;;;5076052;28;20032;-46
2022/07/01 03:00:13;;;;;;;1.55;0.00;;;27.00;42.10;;;;;;5069813;28;20052;-48
2022/07/01 03:02:41;;;;;;;0.00;0.00;;;27.00;42.10;;;;;;5054376;28;20044;-47
2022/07/01 03:05:11;;;;;;;0.00;0.00;;;27.00;42.00;;;;;;5071029;28;20052;-45
2022/07/01 03:07:38;;;;;;;0.10;0.00;;;27.00;42.00;;;;;;5071256;28;20044;-47
2022/07/01 03:10:07;;;;;;;0.00;0.00;;;27.00;42.00;;;;;;5067665;28;20048;-48
2022/07/01 03:12:35;;;;;;;0.08;0.00;;;27.00;42.10;;;;;;5060099;28;20428;-47
2022/07/01 03:15:04;;;;;;;0.00;0.00;;;26.90;42.00;;;;;;5077873;28;20504;-46
2022/07/01 03:17:33;;;;;;;0.00;0.00;;;27.00;42.10;;;;;;5074225;28;20043;-51
2022/07/01 03:20:01;;;;;;;0.00;0.00;;;27.00;42.10;;;;;;5074601;28;20067;-50
2022/07/01 03:22:31;;;;;;;0.00;0.00;;;27.00;42.10;;;;;;5072813;28;20132;-50
2022/07/01 03:24:59;;;;;;;0.00;0.00;;;27.00;42.10;;;;;;5078806;28;20402;-47
2022/07/01 03:27:26;;;;;;;0.10;0.00;;;27.00;42.10;;;;;;5075511;28;20044;-47
2022/07/01 03:29:53;;;;;;;0.00;0.00;;;26.90;42.00;;;;;;5077272;28;20048;-47
2022/07/01 03:32:20;;;;;;;0.10;0.00;;;26.90;42.00;;;;;;5077146;28;20040;-47
2022/07/01 03:34:49;;;;;;;0.10;0.00;;;26.90;42.10;;;;;;5075452;28;20040;-46
2022/07/01 03:37:17;;;;;;;0.00;0.00;;;26.90;42.00;;;;;;5069523;28;20025;-44
2022/07/01 03:39:46;;;;;;;0.00;0.00;;;26.90;42.00;;;;;;5078858;28;20127;-45
2022/07/01 03:42:13;;;;;;;0.80;0.00;;;26.90;42.00;;;;;;5079981;28;20044;-44
2022/07/01 03:44:41;;;;;;;0.00;0.00;;;26.90;42.10;;;;;;5072591;28;20107;-44
2022/07/01 03:47:08;;;;;;;0.35;0.05;;;26.90;42.70;;;;;;5075858;28;20511;-44
2022/07/01 03:49:35;;;;;;;0.20;0.00;;;26.90;42.10;;;;;;5057235;28;20125;-45
2022/07/01 03:52:02;;;;;;;0.00;0.00;;;26.90;42.10;;;;;;5071201;28;20055;-44
2022/07/01 03:54:32;;;;;;;0.00;0.00;;;26.90;42.10;;;;;;5072595;28;20041;-45
2022/07/01 03:57:02;;;;;;;0.10;0.10;;;26.90;42.10;;;;;;5075905;28;20040;-44
2022/07/01 03:59:31;;;;;;;0.00;0.00;;;26.90;42.00;;;;;;5072661;28;20036;-44
2022/07/01 04:01:59;;;;;;;0.00;0.00;;;26.90;42.10;;;;;;5073344;28;20093;-45
2022/07/01 04:04:28;;;;;;;1.05;0.00;;;26.90;42.00;;;;;;5074350;28;20589;-47
2022/07/01 04:06:58;;;;;;;0.10;0.00;;;26.90;42.10;;;;;;5077082;28;20084;-46
2022/07/01 04:09:26;;;;;;;0.20;0.10;;;26.80;42.00;;;;;;5074112;28;20163;-48
2022/07/01 04:11:54;;;;;;;0.30;0.03;;;26.80;42.00;;;;;;5075283;28;20390;-48
2022/07/01 04:14:24;;;;;;;0.10;0.00;;;26.80;42.00;;;;;;5076242;28;20492;-48
2022/07/01 04:16:51;;;;;;;0.00;0.00;;;26.90;42.10;;;;;;5057131;28;20067;-49
2022/07/01 04:19:18;;;;;;;0.00;0.00;;;26.80;42.00;;;;;;5068190;28;20041;-49
2022/07/01 04:24:32;;;;;;;0.10;0.00;;;26.90;42.10;;;;;;5078765;28;20047;-47
2022/07/01 04:27:00;;;;;;;0.10;0.00;;;26.80;42.00;;;;;;5075061;28;20036;-47
2022/07/01 04:29:29;;;;;;;0.10;0.00;;;26.90;42.10;;;;;;5073901;28;20043;-48
2022/07/01 04:31:57;;;;;;;0.20;0.03;;;26.80;42.00;;;;;;5072608;28;20097;-51
2022/07/01 04:34:24;;;;;;;0.10;0.08;;;26.80;42.00;;;;;;5073218;28;20090;-48
2022/07/01 04:36:52;;;;;;;0.82;0.28;;;26.80;42.00;;;;;;5072244;28;20124;-50
2022/07/01 04:39:19;;;;;;;0.20;0.00;;;26.80;42.00;;;;;;5072382;28;20054;-49
2022/07/01 04:42:00;;;;;;;0.75;0.10;;;26.80;42.10;;;;;;5077373;28;20040;-46
2022/07/01 04:44:30;;;;;;;0.17;0.10;;;26.80;42.10;;;;;;5072399;28;20108;-48
2022/07/01 04:46:58;;;;;;;0.57;0.10;;;26.80;42.10;;;;;;5075565;28;20040;-48
2022/07/01 04:49:25;;;;;;;0.10;0.00;;;26.80;42.10;;;;;;5071320;28;20055;-46
2022/07/01 04:51:53;;;;;;;1.75;0.00;;;26.80;42.10;;;;;;5083018;28;20045;-51
2022/07/01 04:54:20;;;;;;;0.10;0.10;;;26.80;42.00;;;;;;5080493;28;20622;-46
2022/07/01 04:56:47;;;;;;;0.00;0.00;;;26.80;42.00;;;;;;5075537;28;20044;-47
2022/07/01 04:59:15;;;;;;;0.10;0.00;;;26.80;42.00;;;;;;5083575;28;20085;-48
2022/07/01 05:01:45;;;;;;;0.00;0.00;;;26.80;42.10;;;;;;5073692;28;20036;-46
2022/07/01 05:04:12;;;;;;;0.13;0.00;;;26.80;42.00;;;;;;5053347;28;20378;-47
2022/07/01 05:06:40;;;;;;;0.22;0.00;;;26.80;42.00;;;;;;5077473;28;20039;-48
2022/07/01 05:09:07;;;;;;;0.10;0.10;;;26.80;42.00;;;;;;5067151;28;20052;-49
2022/07/01 05:11:35;;;;;;;0.00;0.00;;;26.80;42.00;;;;;;5055023;28;20072;-49
2022/07/01 05:14:02;;;;;;;0.00;0.00;;;26.80;42.00;;;;;;5072427;28;20060;-47
2022/07/01 05:16:29;;;;;;;0.00;0.00;;;26.80;42.10;;;;;;5071272;28;20040;-50
2022/07/01 05:21:58;;;;;;;0.20;0.10;;;26.80;42.00;;;;;;5071143;28;20044;-51
2022/07/01 05:24:27;;;;;;;0.00;0.00;;;26.70;42.00;;;;;;5077692;28;20037;-44
2022/07/01 05:26:55;;;;;;;0.80;0.05;;;26.70;42.00;;;;;;5070869;28;20071;-46
2022/07/01 05:29:22;;;;;;;0.47;0.10;;;26.70;42.00;;;;;;5074021;28;20489;-49
2022/07/01 05:31:49;;;;;;;0.13;0.00;;;26.70;42.00;;;;;;5070319;28;20047;-45
2022/07/01 05:34:18;;;;;;;0.08;0.08;;;26.70;41.90;;;;;;5072138;28;20381;-49
2022/07/01 05:36:45;;;;;;;0.60;0.00;;;26.70;41.90;;;;;;5072490;28;20109;-50
2022/07/01 05:39:12;;;;;;;0.57;0.00;;;26.70;41.90;;;;;;5074050;28;20760;-47
2022/07/01 05:41:40;;;;;;;0.05;0.00;;;26.80;41.90;;;;;;5076123;28;20093;-46
2022/07/01 05:44:08;;;;;;;0.05;0.00;;;26.80;41.90;;;;;;5071516;28;20830;-48
2022/07/01 05:46:36;;;;;;;0.10;0.00;;;26.70;41.90;;;;;;5068557;28;20036;-47
2022/07/01 05:49:03;;;;;;;0.00;0.00;;;26.70;41.80;;;;;;5072761;28;20041;-48
2022/07/01 05:51:32;;;;;;;0.25;0.00;;;26.70;41.80;;;;;;5077940;28;20071;-48
2022/07/01 05:53:59;;;;;;;0.43;0.00;;;26.80;41.80;;;;;;5070759;28;20127;-46
2022/07/01 05:56:27;;;;;;;0.00;0.00;;;26.70;41.70;;;;;;5074941;28;20036;-47
2022/07/01 05:58:54;;;;;;;0.45;0.45;;;26.80;41.80;;;;;;5071090;28;20032;-45
2022/07/01 06:01:21;;;;;;;0.90;0.00;;;26.80;41.80;;;;;;5060213;28;20041;-44
2022/07/01 06:03:49;;;;;;;1.50;0.00;;;26.70;41.70;;;;;;5087470;28;20472;-46
2022/07/01 06:06:18;;;;;;;0.52;0.10;;;26.80;41.80;;;;;;5075921;28;20033;-50
2022/07/01 06:08:47;;;;;;;0.10;0.00;;;26.80;41.70;;;;;;5076597;28;20520;-45
2022/07/01 06:11:14;;;;;;;0.00;0.00;;;26.80;41.70;;;;;;5073344;28;20075;-45
2022/07/01 06:13:42;;;;;;;0.32;0.00;;;26.80;41.70;;;;;;5059539;28;20139;-45
2022/07/01 06:16:09;;;;;;;0.10;0.00;;;26.80;41.60;;;;;;5071742;28;20059;-45
2022/07/01 06:18:36;;;;;;;0.50;0.30;;;26.80;41.60;;;;;;5078862;28;20123;-44
2022/07/01 06:21:03;;;;;;;0.00;0.00;;;26.80;41.60;;;;;;5071048;28;20094;-48
2022/07/01 06:23:30;;;;;;;0.10;0.00;;;26.80;41.60;;;;;;5074541;28;20519;-47
2022/07/01 06:25:59;;;;;;;0.00;0.00;;;26.80;41.60;;;;;;5075434;28;20155;-48
2022/07/01 06:28:29;;;;;;;0.20;0.00;;;26.80;41.60;;;;;;5081576;28;20495;-48
2022/07/01 06:30:57;;;;;;;0.52;0.00;;;26.80;41.60;;;;;;5071954;28;20051;-46
2022/07/01 06:33:27;;;;;;;2.05;0.00;;;26.80;41.50;;;;;;5078621;28;20072;-51
2022/07/01 06:35:54;;;;;;;0.10;0.08;;;26.80;41.50;;;;;;5072558;28;20074;-49
2022/07/01 06:38:21;;;;;;;0.35;0.00;;;26.80;41.50;;;;;;5072961;28;20036;-45
2022/07/01 06:41:26;;;;;;;1.35;0.00;;;26.80;41.50;;;;;;5068955;28;20079;-45
2022/07/01 06:43:37;;;;;;;0.00;0.00;;;26.80;41.40;;;;;;5068109;28;20457;-46
2022/07/01 06:46:05;;;;;;;0.00;0.00;;;26.80;41.50;;;;;;5072283;28;20045;-47
2022/07/01 06:48:32;;;;;;;0.03;0.00;;;26.80;41.40;;;;;;5070397;28;20047;-47
2022/07/01 06:50:59;;;;;;;0.57;0.00;;;26.80;41.40;;;;;;5078306;28;20044;-50
2022/07/01 06:53:27;;;;;;;0.30;0.03;;;26.80;41.40;;;;;;5078740;28;20157;-44
2022/07/01 06:55:54;;;;;;;0.10;0.10;;;26.80;41.30;;;;;;5073726;28;20126;-44
2022/07/01 06:58:21;;;;;;;1.13;0.30;;;26.80;41.30;;;;;;5072866;28;20128;-44
2022/07/01 07:00:50;;;;;;;0.43;0.00;;;26.80;41.30;;;;;;5079504;28;20047;-45
2022/07/01 07:03:17;;;;;;;0.03;0.00;;;26.90;41.40;;;;;;5074455;28;20052;-45
2022/07/01 07:05:44;;;;;;;0.95;0.00;;;26.80;41.30;;;;;;5076364;28;20049;-46
2022/07/01 07:08:11;;;;;;;0.20;0.00;;;26.80;41.30;;;;;;5074816;28;20072;-46
2022/07/01 07:10:39;;;;;;;0.47;0.10;;;26.80;41.20;;;;;;5074847;28;20089;-48
2022/07/01 07:13:06;;;;;;;0.30;0.00;;;26.80;41.20;;;;;;5086310;28;20043;-46
2022/07/01 07:15:34;;;;;;;0.10;0.00;;;26.80;41.20;;;;;;5078367;28;20048;-50
2022/07/01 07:18:03;;;;;;;0.10;0.00;;;26.80;41.80;;;;;;5079562;28;20071;-50
2022/07/01 07:20:31;;;;;;;0.10;0.00;;;26.80;41.10;;;;;;5073779;28;20048;-48
2022/07/01 07:22:58;;;;;;;0.60;0.00;;;26.80;41.10;;;;;;5073549;28;20040;-48
2022/07/01 07:25:27;;;;;;;1.13;0.00;;;26.80;41.10;;;;;;5077472;28;20044;-48
2022/07/01 07:27:54;;;;;;;0.03;0.00;;;26.90;41.10;;;;;;5079511;28;20113;-48
2022/07/01 07:30:22;;;;;;;0.20;0.10;;;26.90;41.10;;;;;;5074458;28;20052;-46
2022/07/01 07:32:50;;;;;;;0.63;0.13;;;26.80;41.00;;;;;;5059055;28;20416;-47
2022/07/01 07:35:18;;;;;;;0.25;0.00;;;26.80;41.00;;;;;;5054423;28;20074;-47
2022/07/01 07:37:46;;;;;;;0.80;0.00;;;26.80;41.00;;;;;;5076872;28;20048;-48
2022/07/01 07:40:18;;;;;;;1.85;0.52;;;26.90;41.10;;;;;;5069572;28;20056;-48
2022/07/01 07:42:46;;;;;;;0.00;0.00;;;26.90;41.10;;;;;;5078967;28;20040;-50
2022/07/01 07:45:14;;;;;;;0.43;0.00;;;26.90;41.00;;;;;;5079574;28;20584;-46
2022/07/01 07:47:44;;;;;;;0.32;0.10;;;26.90;41.00;;;;;;5073148;28;20043;-49
2022/07/01 07:50:12;;;;;;;0.47;0.05;;;26.80;40.90;;;;;;5080891;28;20044;-46
2022/07/01 07:52:43;;;;;;;0.30;0.00;;;26.90;40.90;;;;;;5084961;28;20040;-46
2022/07/01 07:55:11;;;;;;;1.35;0.00;;;26.90;40.90;;;;;;5073087;28;20040;-49
2022/07/01 07:57:39;;;;;;;0.10;0.10;;;26.90;40.90;;;;;;5075800;28;20094;-50
2022/07/01 08:00:09;;;;;;;0.90;0.00;;;26.90;40.90;;;;;;5075825;28;20448;-46
2022/07/01 08:02:40;;;;;;;0.55;0.00;;;26.90;40.80;;;;;;5080536;28;20583;-47
2022/07/01 08:05:09;;;;;;;0.03;0.03;;;26.90;40.80;;;;;;5069976;28;20143;-50
2022/07/01 08:07:37;;;;;;;1.33;0.10;;;26.90;40.80;;;;;;5076597;28;20097;-45
2022/07/01 08:10:06;;;;;;;0.47;0.20;;;26.90;40.80;;;;;;5072505;28;20052;-46
2022/07/01 08:12:34;;;;;;;0.10;0.00;;;26.90;40.70;;;;;;5079611;28;20127;-47
2022/07/01 08:15:01;;;;;;;1.67;0.00;;;26.90;41.30;;;;;;5074379;28;20044;-47
2022/07/01 08:17:28;;;;;;;0.20;0.00;;;26.90;40.70;;;;;;5072674;28;20199;-45
2022/07/01 08:19:56;;;;;;;1.85;0.10;;;26.90;40.70;;;;;;5075122;28;20067;-48
2022/07/01 08:22:23;;;;;;;1.30;0.00;;;26.90;41.30;;;;;;5056870;28;20043;-44
2022/07/01 08:24:51;;;;;;;0.40;0.00;;;26.90;40.70;;;;;;5081135;28;20040;-46
2022/07/01 08:27:19;;;;;;;0.20;0.10;;;26.90;40.70;;;;;;5073902;28;20540;-45
2022/07/01 08:29:47;;;;;;;2.72;0.00;;;26.90;40.70;;;;;;5076240;28;20047;-48
2022/07/01 08:32:14;;;;;;;0.10;0.00;;;26.90;40.60;;;;;;5074920;28;20492;-49
2022/07/01 08:34:41;;;;;;;0.43;0.30;;;26.90;40.60;;;;;;5073975;28;20078;-49
2022/07/01 08:37:08;;;;;;;1.25;0.00;;;26.90;40.60;;;;;;5069572;28;20076;-47
2022/07/01 08:39:35;;;;;;;1.63;0.10;;;26.90;40.60;;;;;;5077984;28;20474;-46
2022/07/01 08:42:04;;;;;;;0.63;0.10;;;26.90;40.50;;;;;;5078766;28;20124;-46
2022/07/01 08:44:32;;;;;;;0.10;0.00;;;26.90;40.50;;;;;;5083467;28;20086;-48
2022/07/01 08:46:59;;;;;;;0.60;0.00;;;26.90;40.50;;;;;;5082789;28;20074;-51
2022/07/01 08:49:27;;;;;;;2.58;0.30;;;26.90;40.40;;;;;;5083379;28;20089;-50
2022/07/01 08:51:54;;;;;;;3.15;0.10;;;26.90;40.40;;;;;;5083042;28;20079;-46
2022/07/01 08:54:21;;;;;;;1.20;0.57;;;27.00;40.50;;;;;;5085012;28;20077;-49
2022/07/01 08:56:48;;;;;;;0.50;0.10;;;26.90;40.40;;;;;;5084228;28;20056;-47
2022/07/01 08:59:23;;;;;;;0.73;0.08;;;26.90;40.30;;;;;;5082684;28;20040;-46
2022/07/01 09:01:58;;;;;;;0.20;0.10;;;27.00;40.40;;;;;;5063662;28;20052;-46
2022/07/01 09:04:25;;;;;;;0.73;0.00;;;27.00;40.30;;;;;;5081886;28;20801;-45
2022/07/01 09:06:52;;;;;;;0.63;0.47;;;26.90;40.30;;;;;;5083494;28;20051;-48
2022/07/01 09:09:21;;;;;;;0.13;0.00;;;26.90;40.30;;;;;;5084617;28;20079;-45
2022/07/01 09:11:53;;;;;;;0.90;0.17;;;27.00;40.30;;;;;;5078993;28;20040;-44
2022/07/01 09:14:22;;;;;;;1.58;0.47;;;27.00;40.20;;;;;;5074178;28;20120;-49
2022/07/01 09:16:51;;;;;;;3.63;0.10;;;27.00;40.20;;;;;;5072429;28;20051;-44
2022/07/01 09:19:21;;;;;;;0.20;0.10;;;27.00;40.20;;;;;;5071779;28;20150;-44
2022/07/01 09:21:50;;;;;;;0.73;0.10;;;27.00;40.10;;;;;;5075140;28;20048;-47
2022/07/01 09:24:26;;;;;;;0.10;0.10;;;27.00;40.10;;;;;;5077826;28;20051;-46
2022/07/01 09:26:55;;;;;;;0.10;0.10;;;27.00;40.10;;;;;;5071188;28;20045;-49
2022/07/01 09:29:28;;;;;;;0.20;0.03;;;27.00;40.10;;;;;;5070227;28;20035;-50
2022/07/01 09:31:55;;;;;;;1.75;0.00;;;27.00;40.00;;;;;;5066367;28;20124;-50
2022/07/01 09:34:23;;;;;;;0.10;0.00;;;27.00;40.00;;;;;;5072789;28;20072;-50
2022/07/01 09:36:55;;;;;;;0.00;0.00;;;27.00;40.00;;;;;;5068275;28;20072;-48
2022/07/01 09:39:23;;;;;;;0.17;0.17;;;27.10;40.00;;;;;;5072051;28;20064;-50
2022/07/01 09:41:50;;;;;;;1.55;0.20;;;27.10;40.00;;;;;;5078110;28;20461;-44
2022/07/01 09:44:18;;;;;;;1.85;0.10;;;27.10;40.00;;;;;;5071493;28;20069;-48
2022/07/01 09:46:56;;;;;;;0.50;0.10;;;27.10;40.00;;;;;;5069601;28;20154;-45
2022/07/01 09:49:25;;;;;;;0.93;0.40;;;27.10;39.90;;;;;;5077733;28;20044;-51
2022/07/01 09:51:53;;;;;;;1.75;0.10;;;27.10;39.90;;;;;;5086679;28;20075;-44
2022/07/01 09:54:21;;;;;;;1.02;0.43;;;27.10;39.90;;;;;;5058848;28;20135;-43
2022/07/01 09:56:48;;;;;;;0.20;0.17;;;27.10;39.80;;;;;;5075944;28;20047;-46
2022/07/01 09:59:15;;;;;;;1.70;0.20;;;27.10;39.80;;;;;;5072806;28;20047;-43
2022/07/01 10:01:45;;;;;;;0.68;0.20;;;27.10;39.80;;;;;;5068874;28;20131;-49
2022/07/01 10:04:15;;;;;;;0.30;0.08;;;27.10;39.70;;;;;;5069647;28;20060;-48
2022/07/01 10:06:58;;;;;;;0.10;0.10;;;27.10;39.70;;;;;;5077164;28;20066;-48
2022/07/01 10:09:49;;;;;;;0.22;0.13;;;27.20;39.70;;;;;;5074052;28;20040;-44
2022/07/01 10:12:40;;;;;;;0.10;0.00;;;27.20;39.70;;;;;;5073731;28;20048;-46
2022/07/01 10:15:11;;;;;;;2.88;0.10;;;27.20;39.60;;;;;;5075537;28;20079;-48
2022/07/01 10:17:42;;;;;;;0.32;0.00;;;27.10;39.60;;;;;;5071055;28;20040;-44
2022/07/01 10:20:14;;;;;;;1.30;0.10;;;27.20;39.60;;;;;;5075620;28;20055;-45
2022/07/01 10:22:44;;;;;;;0.75;0.10;;;27.20;39.60;;;;;;5069656;28;20517;-48
2022/07/01 10:25:34;;;;;;;0.10;0.10;;;27.20;39.50;;;;;;5076948;28;20471;-46
2022/07/01 10:28:29;;;;;;;2.00;0.28;;;27.20;39.40;;;;;;5071024;28;20079;-47
2022/07/01 10:31:01;;;;;;;1.65;0.10;;;27.20;39.40;;;;;;5014881;28;20601;-49
2022/07/01 10:33:47;;;;;;;2.83;0.10;;;27.20;39.50;;;;;;5024821;28;20081;-47
2022/07/01 10:36:25;;;;;;;0.10;0.10;;;27.20;39.40;;;;;;5009626;28;20140;-47
2022/07/01 10:39:22;;;;;;;1.42;0.10;;;27.20;39.40;;;;;;5020819;28;20639;-45
2022/07/01 10:42:02;;;;;;;2.53;0.20;;;27.20;39.30;;;;;;5023638;28;20053;-47
2022/07/01 10:44:34;;;;;;;0.32;0.10;;;27.30;39.40;;;;;;5021586;28;20463;-50
2022/07/01 10:47:05;;;;;;;0.75;0.10;;;27.30;39.40;;;;;;5013355;28;20072;-49
2022/07/01 10:49:52;;;;;;;1.45;0.10;;;27.30;39.30;;;;;;5016586;28;20438;-51
2022/07/01 10:52:19;;;;;;;3.25;0.10;;;27.30;39.20;;;;;;5022042;28;20073;-47
2022/07/01 10:54:53;;;;;;;0.95;0.10;;;27.30;39.20;;;;;;5018307;28;20129;-49
2022/07/01 10:57:23;;;;;;;0.30;0.10;;;27.30;39.20;;;;;;5022817;28;20833;-47
2022/07/01 10:59:51;;;;;;;1.10;0.10;;;27.30;39.20;;;;;;5024457;28;20045;-46
2022/07/01 11:02:22;;;;;;;1.60;0.10;;;27.30;39.10;;;;;;5016424;28;20152;-45
2022/07/01 11:04:50;;;;;;;0.93;0.17;;;27.30;39.10;;;;;;5010695;28;20087;-46
2022/07/01 11:07:18;;;;;;;0.10;0.10;;;27.30;39.00;;;;;;5061832;28;20098;-45
2022/07/01 11:09:46;;;;;;;0.10;0.10;;;27.30;39.00;;;;;;5076190;28;20140;-46
2022/07/01 11:12:17;;;;;;;0.52;0.08;;;27.40;39.00;;;;;;5076405;28;20132;-50
2022/07/01 11:14:44;;;;;;;0.15;0.10;;;27.40;39.00;;;;;;5076783;28;20408;-47
2022/07/01 11:17:12;;;;;;;1.00;0.10;;;27.40;39.00;;;;;;5074234;28;20120;-47
2022/07/01 11:19:40;;;;;;;0.30;0.10;;;27.40;38.90;;;;;;5075512;28;20039;-46
2022/07/01 11:22:07;;;;;;;0.77;0.50;;;27.50;38.90;;;;;;5074194;28;20037;-44
2022/07/01 11:24:34;;;;;;;0.15;0.10;;;27.40;38.80;;;;;;5081054;28;20048;-48
2022/07/01 11:27:07;;;;;;;0.80;0.10;;;27.40;38.70;;;;;;5073805;28;20119;-47
2022/07/01 11:29:36;;;;;;;0.68;0.10;;;27.50;38.70;;;;;;5076177;28;20040;-45
2022/07/01 11:32:05;;;;;;;1.85;0.35;;;27.50;38.70;;;;;;5073706;28;20113;-47
2022/07/01 11:34:32;;;;;;;0.47;0.13;;;27.50;38.60;;;;;;5073820;28;20044;-46
2022/07/01 11:39:43;;;;;;;0.73;0.17;;;27.50;38.60;;;;;;5074372;28;20046;-46
2022/07/01 11:42:11;;;;;;;0.30;0.10;;;27.50;38.50;;;;;;5078147;28;20040;-45
2022/07/01 11:44:42;;;;;;;1.13;0.10;;;27.60;38.50;;;;;;5073867;28;20505;-46
2022/07/01 11:47:12;;;;;;;0.77;0.10;;;27.60;38.50;;;;;;5075196;28;20044;-47
2022/07/01 11:49:48;;;;;;;1.27;0.10;;;27.60;38.50;;;;;;5076049;28;20043;-50
2022/07/01 11:52:17;;;;;;;0.88;0.00;;;27.60;38.40;;;;;;5075070;28;20597;-47
2022/07/01 11:54:47;;;;;;;0.30;0.10;;;27.60;38.40;;;;;;5075163;28;20080;-50
2022/07/01 11:57:17;;;;;;;1.45;0.43;;;27.60;38.40;;;;;;5079158;28;20040;-44
2022/07/01 11:59:48;;;;;;;0.57;0.10;;;27.60;38.40;;;;;;5079480;28;20043;-47
2022/07/01 12:02:17;;;;;;;0.98;0.32;;;27.60;38.40;;;;;;5073266;28;20041;-47
2022/07/01 12:04:45;;;;;;;1.50;0.10;;;27.70;38.40;;;;;;5071509;28;20496;-48
2022/07/01 12:07:15;;;;;;;1.40;0.10;;;27.70;38.40;;;;;;5074052;28;20142;-49
2022/07/01 12:09:43;;;;;;;0.10;0.08;;;27.70;38.30;;;;;;5081075;28;20060;-48
2022/07/01 12:12:17;;;;;;;1.13;0.10;;;27.70;38.20;;;;;;5073105;28;20539;-45
2022/07/01 12:14:53;;;;;;;0.75;0.15;;;27.80;38.30;;;;;;5077077;28;20039;-47
2022/07/01 12:17:21;;;;;;;0.60;0.10;;;27.80;38.20;;;;;;5076289;28;20075;-46
2022/07/01 12:19:49;;;;;;;0.15;0.00;;;27.70;38.10;;;;;;5083885;28;20040;-47
2022/07/01 12:22:19;;;;;;;1.30;0.00;;;27.80;38.20;;;;;;5068841;28;20047;-45
2022/07/01 12:24:47;;;;;;;0.00;0.00;;;27.80;38.10;;;;;;5082496;28;20054;-46
2022/07/01 12:27:15;;;;;;;0.10;0.00;;;27.80;38.10;;;;;;5072774;28;20052;-44
2022/07/01 12:29:55;;;;;;;0.10;0.10;;;27.80;38.10;;;;;;5075034;28;20475;-45
2022/07/01 12:32:24;;;;;;;0.15;0.00;;;27.90;38.10;;;;;;5074622;28;20427;-47
2022/07/01 12:34:53;;;;;;;1.20;0.20;;;27.90;38.10;;;;;;5072943;28;20072;-47
2022/07/01 12:37:22;;;;;;;0.25;0.03;;;27.90;38.00;;;;;;5068622;28;20079;-47
2022/07/01 12:39:50;;;;;;;0.68;0.00;;;27.90;38.00;;;;;;5074828;28;20044;-50
2022/07/01 12:42:26;;;;;;;0.73;0.13;;;27.90;38.00;;;;;;5081143;28;20044;-50
2022/07/01 12:44:56;;;;;;;;;;;27.90;38.00;;;;;;5076364;28;20052;-48
2022/07/01 12:47:29;;;;;;;0.63;0.00;;;27.90;38.00;;;;;;5080622;28;19920;-51
2022/07/01 12:50:16;;;;;;;0.08;0.00;;;27.90;38.10;;;;;;5075182;28;20047;-51
2022/07/01 12:52:56;;;;;;;0.10;0.00;;;28.00;38.00;;;;;;5072947;28;20144;-46
2022/07/01 12:55:23;;;;;;;1.45;0.00;;;28.00;38.00;;;;;;5067475;28;20036;-45
2022/07/01 12:57:52;;;;;;;0.55;0.00;;;28.10;38.10;;;;;;5076941;28;20454;-45
2022/07/01 13:00:25;;;;;;;0.15;0.00;;;28.20;38.00;;;;;;5077504;28;20047;-51
2022/07/01 13:02:54;;;;;;;2.83;0.10;;;28.20;38.00;;;;;;5072403;28;20051;-52
2022/07/01 13:05:22;;;;;;;0.47;0.03;;;28.30;37.90;;;;;;5076520;28;20052;-45